Time;durP1;ratioP1;P1;durP2;ratioP2;P2;SDS_P1;SDS_P2;PMS_P1;PMS_P2;Temp;Humidity;BMP_temperature;BMP_pressure;BME280_temperature;BME280_humidity;BME280_pressure;Samples;Min_cycle;Max_cycle;Signal;HPM_P1;HPM_P2
2021/12/15 00:01:30;;;;;;;39.97;25.58;;;9.10;86.40;;;;;;4935679;29;20050;-80
2021/12/15 00:03:58;;;;;;;35.95;24.13;;;9.10;86.40;;;;;;4935417;29;20055;-80
2021/12/15 00:06:25;;;;;;;41.75;25.15;;;9.10;86.40;;;;;;4935551;29;20056;-80
2021/12/15 00:08:56;;;;;;;39.67;25.13;;;9.10;86.40;;;;;;4935408;29;20536;-80
2021/12/15 00:11:37;;;;;;;40.47;26.75;;;9.10;86.40;;;;;;4933884;29;20048;-80
2021/12/15 00:14:17;;;;;;;45.80;26.90;;;9.10;86.40;;;;;;4935691;29;20098;-80
2021/12/15 00:16:47;;;;;;;39.65;26.10;;;9.10;86.40;;;;;;4935972;29;20055;-80
2021/12/15 00:19:14;;;;;;;40.40;26.58;;;9.10;86.40;;;;;;4935854;29;20095;-80
2021/12/15 00:21:41;;;;;;;37.45;24.77;;;9.10;86.40;;;;;;4935488;29;20047;-80
2021/12/15 00:24:09;;;;;;;38.03;26.52;;;9.10;86.40;;;;;;4936062;29;20051;-80
2021/12/15 00:26:38;;;;;;;39.55;26.75;;;9.10;86.40;;;;;;4934975;29;20532;-80
2021/12/15 00:29:07;;;;;;;37.20;24.58;;;9.10;86.40;;;;;;4935867;29;20051;-80
2021/12/15 00:31:37;;;;;;;38.17;24.48;;;9.10;86.40;;;;;;4935629;29;20047;-80
2021/12/15 00:34:07;;;;;;;39.65;25.67;;;9.10;86.40;;;;;;4935662;29;20158;-80
2021/12/15 00:36:34;;;;;;;35.85;24.67;;;9.10;86.40;;;;;;4935451;29;20536;-80
2021/12/15 00:39:04;;;;;;;36.47;25.55;;;9.10;86.40;;;;;;4935787;29;20051;-80
2021/12/15 00:41:31;;;;;;;41.83;27.17;;;9.10;86.40;;;;;;4931099;29;20106;-80
2021/12/15 00:43:58;;;;;;;36.63;25.45;;;9.10;86.40;;;;;;4937245;29;20062;-80
2021/12/15 00:46:25;;;;;;;36.95;25.38;;;9.10;86.40;;;;;;4935619;29;20050;-80
2021/12/15 00:48:53;;;;;;;37.83;26.08;;;9.10;86.40;;;;;;4935627;29;20062;-80
2021/12/15 00:51:20;;;;;;;42.53;25.30;;;9.10;86.40;;;;;;4935354;29;20040;-80
2021/12/15 00:53:47;;;;;;;40.80;26.38;;;9.10;86.40;;;;;;4935361;29;20056;-80
2021/12/15 00:56:14;;;;;;;38.60;24.98;;;9.10;86.40;;;;;;4936836;28;20060;-80
2021/12/15 00:58:42;;;;;;;42.22;26.73;;;9.00;86.40;;;;;;4935595;29;20066;-80
2021/12/15 01:01:09;;;;;;;36.90;25.40;;;9.10;86.40;;;;;;4935394;29;20052;-80
2021/12/15 01:03:37;;;;;;;37.47;25.25;;;9.10;86.40;;;;;;4934355;29;20087;-80
2021/12/15 01:06:09;;;;;;;45.90;27.90;;;9.10;86.40;;;;;;4935522;29;20062;-80
2021/12/15 01:08:42;;;;;;;40.15;26.13;;;9.00;86.40;;;;;;4931467;29;20122;-80
2021/12/15 01:11:25;;;;;;;44.70;29.02;;;9.00;86.40;;;;;;4936167;29;20047;-80
2021/12/15 01:19:53;;;;;;;37.17;26.67;;;9.00;86.40;;;;;;4934841;29;20048;-80
2021/12/15 01:22:43;;;;;;;39.80;26.52;;;9.00;86.40;;;;;;4938606;29;20055;-80
2021/12/15 01:25:22;;;;;;;45.15;27.52;;;9.00;86.40;;;;;;4938925;29;20043;-80
2021/12/15 01:27:51;;;;;;;39.83;25.58;;;9.00;86.40;;;;;;4938921;29;20044;-80
2021/12/15 01:30:25;;;;;;;40.90;27.27;;;9.00;86.50;;;;;;4938780;29;20043;-80
2021/12/15 01:32:52;;;;;;;40.75;27.60;;;9.00;86.40;;;;;;4938835;29;20406;-80
2021/12/15 01:35:19;;;;;;;42.20;27.95;;;9.00;86.50;;;;;;4937577;29;20574;-80
2021/12/15 01:37:48;;;;;;;40.47;26.70;;;9.00;86.40;;;;;;4938533;29;20048;-80
2021/12/15 01:40:28;;;;;;;41.60;27.02;;;9.00;86.50;;;;;;4938444;29;20425;-80
2021/12/15 01:42:55;;;;;;;40.58;26.77;;;9.00;86.50;;;;;;4938508;29;20048;-80
2021/12/15 01:48:11;;;;;;;39.05;25.95;;;9.00;86.50;;;;;;4923726;29;20051;-80
2021/12/15 01:50:39;;;;;;;39.53;27.60;;;9.00;86.50;;;;;;4937542;29;20047;-80
2021/12/15 01:53:07;;;;;;;39.55;26.23;;;9.00;86.50;;;;;;4938606;29;20048;-80
2021/12/15 01:55:35;;;;;;;39.42;27.48;;;9.00;86.50;;;;;;4938282;29;20054;-80
2021/12/15 01:58:02;;;;;;;38.97;28.58;;;9.00;86.50;;;;;;4938241;29;20050;-80
2021/12/15 02:00:37;;;;;;;37.72;25.90;;;9.00;86.50;;;;;;4938187;29;20051;-80
2021/12/15 02:03:05;;;;;;;40.42;27.42;;;9.00;86.50;;;;;;4923052;29;20047;-80
2021/12/15 02:05:33;;;;;;;41.42;26.90;;;9.00;86.50;;;;;;4937605;29;20067;-80
2021/12/15 02:08:03;;;;;;;40.67;26.30;;;9.00;86.50;;;;;;4939625;29;20052;-80
2021/12/15 02:10:34;;;;;;;36.88;25.63;;;9.00;86.50;;;;;;4938021;29;20418;-80
2021/12/15 02:13:05;;;;;;;36.25;25.00;;;9.00;86.50;;;;;;4938037;29;20044;-80
2021/12/15 02:15:37;;;;;;;38.15;26.20;;;9.00;86.50;;;;;;4938179;29;20058;-80
2021/12/15 02:18:07;;;;;;;37.17;26.17;;;9.00;86.50;;;;;;4922860;29;20055;-80
2021/12/15 02:20:38;;;;;;;39.20;27.70;;;9.00;86.50;;;;;;4936960;29;20043;-80
2021/12/15 02:23:09;;;;;;;38.88;26.17;;;9.00;86.50;;;;;;4938169;29;20054;-80
2021/12/15 02:25:36;;;;;;;39.72;26.75;;;9.00;86.50;;;;;;4937808;29;20126;-80
2021/12/15 02:28:06;;;;;;;38.88;26.55;;;9.00;86.50;;;;;;4937746;29;20054;-80
2021/12/15 02:38:26;;;;;;;40.90;27.55;;;9.00;86.50;;;;;;4936735;29;20051;-80
2021/12/15 02:40:54;;;;;;;37.67;27.63;;;9.00;86.50;;;;;;4937544;29;20055;-80
2021/12/15 02:43:21;;;;;;;38.80;26.98;;;9.00;86.50;;;;;;4937469;29;20051;-80
2021/12/15 02:45:48;;;;;;;36.70;26.23;;;9.00;86.50;;;;;;4937385;29;20062;-80
2021/12/15 02:48:15;;;;;;;39.45;26.75;;;9.00;86.50;;;;;;4937371;29;20047;-80
2021/12/15 02:50:42;;;;;;;45.97;28.45;;;9.00;86.50;;;;;;4936644;29;20055;-80
2021/12/15 02:53:10;;;;;;;43.60;27.63;;;8.90;86.50;;;;;;4936760;28;20051;-80
2021/12/15 02:55:37;;;;;;;40.63;26.80;;;9.00;86.50;;;;;;4937100;29;20056;-80
2021/12/15 02:58:05;;;;;;;38.63;27.23;;;9.00;86.50;;;;;;4937177;29;20047;-80
2021/12/15 03:00:47;;;;;;;44.00;27.83;;;9.00;86.50;;;;;;4936869;29;20056;-80
2021/12/15 03:06:08;;;;;;;40.53;27.95;;;9.00;86.50;;;;;;4937199;29;20055;-80
2021/12/15 03:08:51;;;;;;;38.97;26.70;;;9.00;86.50;;;;;;4932983;29;20055;-80
2021/12/15 03:16:51;;;;;;;46.25;28.73;;;8.90;86.50;;;;;;4936440;29;20055;-80
2021/12/15 03:19:18;;;;;;;38.25;26.20;;;9.00;86.60;;;;;;4936688;29;20412;-80
2021/12/15 03:21:45;;;;;;;40.10;26.80;;;9.00;86.60;;;;;;4936629;29;20392;-80
2021/12/15 03:24:19;;;;;;;40.95;27.15;;;9.00;86.60;;;;;;4936728;29;20054;-80
2021/12/15 03:27:02;;;;;;;;;;;9.00;86.60;;;;;;4937122;29;20054;-80
2021/12/15 03:37:41;;;;;;;39.20;26.50;;;8.90;86.60;;;;;;4936412;29;20047;-80
2021/12/15 03:40:11;;;;;;;41.38;26.83;;;8.90;86.60;;;;;;4936443;29;20413;-80
2021/12/15 03:43:02;;;;;;;39.58;26.50;;;8.90;86.60;;;;;;4936551;29;20057;-80
2021/12/15 03:45:57;;;;;;;40.60;27.35;;;8.90;86.60;;;;;;4935966;29;20039;-80
2021/12/15 03:48:28;;;;;;;37.28;25.65;;;8.90;86.60;;;;;;4924571;29;20051;-80
2021/12/15 03:50:57;;;;;;;38.92;26.42;;;8.90;86.60;;;;;;4936211;29;20049;-80
2021/12/15 03:53:26;;;;;;;41.00;28.05;;;9.00;86.60;;;;;;4935384;29;20605;-80
2021/12/15 03:55:54;;;;;;;42.28;27.15;;;8.90;86.60;;;;;;4935996;29;20066;-80
2021/12/15 03:58:23;;;;;;;39.50;26.17;;;9.00;86.60;;;;;;4935933;29;20044;-80
2021/12/15 04:00:55;;;;;;;38.80;26.38;;;9.00;86.60;;;;;;4936071;29;20051;-80
2021/12/15 04:03:36;;;;;;;42.65;28.33;;;9.00;86.60;;;;;;4936201;29;20075;-80
2021/12/15 04:06:07;;;;;;;45.92;26.90;;;9.00;86.60;;;;;;4921283;29;20501;-80
2021/12/15 04:08:36;;;;;;;42.70;27.88;;;9.00;86.60;;;;;;4931722;29;20062;-80
2021/12/15 04:11:08;;;;;;;40.30;26.05;;;9.00;86.60;;;;;;4935935;29;20055;-80
2021/12/15 04:13:35;;;;;;;36.35;25.70;;;8.90;86.60;;;;;;4935617;29;20047;-80
2021/12/15 04:16:08;;;;;;;41.63;26.35;;;8.90;86.60;;;;;;4935801;29;20051;-80
2021/12/15 04:18:37;;;;;;;39.70;26.58;;;9.00;86.60;;;;;;4935891;29;20510;-80
2021/12/15 04:21:05;;;;;;;38.03;25.80;;;9.00;86.60;;;;;;4921214;29;20130;-80
2021/12/15 04:23:33;;;;;;;36.42;25.92;;;9.00;86.60;;;;;;4931602;29;20048;-80
2021/12/15 04:26:00;;;;;;;40.80;26.65;;;9.00;86.60;;;;;;4937211;29;20047;-80
2021/12/15 04:28:34;;;;;;;38.47;25.25;;;9.00;86.60;;;;;;4935486;29;20048;-80
2021/12/15 04:31:11;;;;;;;40.15;26.80;;;9.00;86.60;;;;;;4935555;29;20048;-80
2021/12/15 04:33:48;;;;;;;36.30;25.90;;;9.00;86.60;;;;;;4935827;29;20054;-80
2021/12/15 04:36:15;;;;;;;36.58;25.73;;;9.00;86.60;;;;;;4935888;29;20044;-80
2021/12/15 04:38:44;;;;;;;36.58;26.40;;;9.00;86.60;;;;;;4935026;29;20047;-80
2021/12/15 04:41:16;;;;;;;37.50;25.58;;;9.00;86.60;;;;;;4935076;28;20066;-80
2021/12/15 04:44:09;;;;;;;41.50;26.23;;;9.00;86.60;;;;;;4935065;29;20051;-80
2021/12/15 04:46:40;;;;;;;37.83;25.88;;;9.00;86.60;;;;;;4935675;29;20079;-80
2021/12/15 04:49:10;;;;;;;36.78;24.95;;;8.90;86.60;;;;;;4935616;29;20403;-80
2021/12/15 04:51:37;;;;;;;38.38;25.75;;;9.00;86.60;;;;;;4935529;29;20052;-80
2021/12/15 04:54:05;;;;;;;35.10;25.27;;;9.00;86.60;;;;;;4935509;29;20057;-80
2021/12/15 04:56:33;;;;;;;41.22;26.17;;;9.00;86.60;;;;;;4936546;29;20051;-80
2021/12/15 04:59:00;;;;;;;39.00;25.30;;;9.00;86.60;;;;;;4940818;29;20077;-80
2021/12/15 05:01:27;;;;;;;36.33;25.45;;;9.00;86.60;;;;;;4939413;29;20048;-80
2021/12/15 05:03:55;;;;;;;37.25;25.88;;;9.00;86.60;;;;;;4939176;29;20058;-80
2021/12/15 05:06:23;;;;;;;35.97;24.15;;;9.00;86.60;;;;;;4939404;29;20047;-80
2021/12/15 05:08:50;;;;;;;37.90;25.02;;;8.90;86.60;;;;;;4938194;29;20418;-80
2021/12/15 05:11:18;;;;;;;39.78;25.52;;;9.00;86.60;;;;;;4938037;29;20055;-80
2021/12/15 05:13:45;;;;;;;37.78;24.75;;;9.00;86.60;;;;;;4939002;29;20044;-80
2021/12/15 05:16:12;;;;;;;36.00;24.88;;;9.00;86.60;;;;;;4938955;29;20506;-80
2021/12/15 05:18:40;;;;;;;39.35;24.70;;;9.00;86.60;;;;;;4938984;29;20055;-80
2021/12/15 05:21:08;;;;;;;34.78;24.40;;;9.00;86.60;;;;;;4938988;29;20051;-80
2021/12/15 05:23:43;;;;;;;34.83;24.13;;;9.00;86.60;;;;;;4938188;29;20531;-80
2021/12/15 05:26:11;;;;;;;31.88;23.52;;;9.00;86.60;;;;;;4939583;29;20062;-80
2021/12/15 05:28:39;;;;;;;33.40;24.08;;;9.00;86.60;;;;;;4938909;29;20050;-80
2021/12/15 05:31:06;;;;;;;33.78;24.23;;;9.00;86.60;;;;;;4938751;29;20058;-80
2021/12/15 05:33:33;;;;;;;33.45;22.30;;;9.00;86.60;;;;;;4938806;29;20506;-80
2021/12/15 05:36:00;;;;;;;31.25;23.52;;;9.00;86.60;;;;;;4938701;29;20059;-80
2021/12/15 05:38:27;;;;;;;32.35;22.65;;;9.00;86.60;;;;;;4937885;29;20048;-80
2021/12/15 05:40:57;;;;;;;35.47;23.80;;;9.00;86.60;;;;;;4938445;29;20078;-80
2021/12/15 05:43:24;;;;;;;32.33;22.40;;;9.00;86.60;;;;;;4933108;29;20051;-80
2021/12/15 05:45:52;;;;;;;33.78;22.25;;;9.00;86.60;;;;;;4938625;29;20425;-80
2021/12/15 05:48:20;;;;;;;34.97;22.95;;;9.00;86.60;;;;;;4938566;29;20075;-80
2021/12/15 05:50:50;;;;;;;33.92;22.83;;;9.00;86.50;;;;;;4938308;29;20048;-80
2021/12/15 05:53:18;;;;;;;36.28;23.25;;;9.00;86.50;;;;;;4935953;29;20059;-80
2021/12/15 05:55:45;;;;;;;34.33;22.83;;;9.00;86.50;;;;;;4932572;29;20051;-80
2021/12/15 05:58:12;;;;;;;31.95;21.77;;;9.00;86.60;;;;;;4938400;29;20039;-80
2021/12/15 06:00:46;;;;;;;34.97;23.17;;;9.00;86.50;;;;;;4938251;29;20058;-80
2021/12/15 06:03:14;;;;;;;31.83;22.17;;;9.00;86.50;;;;;;4938323;29;20580;-80
2021/12/15 06:05:42;;;;;;;28.50;21.33;;;9.00;86.50;;;;;;4937514;29;20417;-80
2021/12/15 06:08:09;;;;;;;31.55;21.10;;;9.00;86.50;;;;;;4936646;28;20056;-80
2021/12/15 06:10:39;;;;;;;31.92;22.00;;;9.00;86.50;;;;;;4937624;29;20425;-80
2021/12/15 06:13:09;;;;;;;32.00;22.42;;;9.00;86.50;;;;;;4938022;29;20085;-79
2021/12/15 06:15:38;;;;;;;30.50;21.00;;;9.00;86.50;;;;;;4937985;29;20047;-80
2021/12/15 06:18:09;;;;;;;30.48;22.02;;;9.00;86.50;;;;;;4936027;29;20138;-80
2021/12/15 06:20:37;;;;;;;33.05;21.15;;;9.00;86.50;;;;;;4937376;29;20052;-79
2021/12/15 06:23:17;;;;;;;31.40;21.25;;;9.00;86.50;;;;;;4939185;29;20434;-81
2021/12/15 06:25:47;;;;;;;28.42;21.08;;;9.00;86.50;;;;;;4939380;28;20084;-81
2021/12/15 06:28:15;;;;;;;28.40;21.45;;;9.00;86.50;;;;;;4937610;29;20112;-80
2021/12/15 06:30:44;;;;;;;27.25;20.70;;;9.00;86.50;;;;;;4937002;29;20047;-80
2021/12/15 06:33:14;;;;;;;35.30;22.52;;;9.00;86.50;;;;;;4937369;29;20044;-80
2021/12/15 06:35:42;;;;;;;27.88;20.85;;;9.00;86.40;;;;;;4940544;29;20051;-80
2021/12/15 06:38:09;;;;;;;29.92;20.67;;;9.00;86.50;;;;;;4935954;28;20062;-80
2021/12/15 06:40:36;;;;;;;28.95;20.58;;;9.00;86.40;;;;;;4937067;29;20044;-80
2021/12/15 06:43:03;;;;;;;27.30;20.02;;;9.00;86.50;;;;;;4937206;29;20426;-80
2021/12/15 06:45:38;;;;;;;27.23;19.65;;;9.00;86.40;;;;;;4936691;29;20040;-79
2021/12/15 06:59:08;;;;;;;23.90;18.15;;;9.00;86.40;;;;;;4937127;29;20130;-79
2021/12/15 07:01:35;;;;;;;25.90;18.55;;;9.00;86.40;;;;;;4936733;29;20422;-79
2021/12/15 07:04:05;;;;;;;27.92;18.77;;;9.00;86.40;;;;;;4937013;29;20134;-79
2021/12/15 07:06:35;;;;;;;25.05;18.20;;;9.10;86.40;;;;;;4936647;29;20127;-80
2021/12/15 07:09:03;;;;;;;26.80;18.33;;;9.00;86.40;;;;;;4921485;29;20131;-81
2021/12/15 07:11:30;;;;;;;22.98;18.33;;;9.00;86.40;;;;;;4931728;29;20139;-79
2021/12/15 07:13:57;;;;;;;23.17;18.17;;;9.10;86.40;;;;;;4936455;28;20094;-81
2021/12/15 07:16:25;;;;;;;23.85;18.33;;;9.10;86.40;;;;;;4936485;29;20055;-81
2021/12/15 07:19:04;;;;;;;25.52;18.50;;;9.00;86.40;;;;;;4936177;29;20052;-81
2021/12/15 07:21:38;;;;;;;27.23;17.98;;;9.10;86.40;;;;;;4935830;29;20057;-80
2021/12/15 07:24:06;;;;;;;27.67;18.67;;;9.10;86.40;;;;;;4921796;29;20091;-80
2021/12/15 07:26:34;;;;;;;25.25;17.67;;;9.10;86.40;;;;;;4934497;29;20478;-80
2021/12/15 07:29:03;;;;;;;24.25;17.77;;;9.10;86.30;;;;;;4937625;28;20055;-80
2021/12/15 07:31:30;;;;;;;24.70;18.10;;;9.10;86.30;;;;;;4936300;29;20410;-80
2021/12/15 07:33:57;;;;;;;22.38;17.02;;;9.10;86.30;;;;;;4936355;29;20130;-81
2021/12/15 07:36:24;;;;;;;25.88;18.70;;;9.10;86.30;;;;;;4935645;29;20055;-80
2021/12/15 07:38:55;;;;;;;26.70;18.08;;;9.10;86.30;;;;;;4936099;29;20056;-80
2021/12/15 07:41:28;;;;;;;24.50;17.70;;;9.10;86.20;;;;;;4935417;29;20055;-79
2021/12/15 07:43:59;;;;;;;24.17;17.45;;;9.10;86.20;;;;;;4935678;29;20067;-81
2021/12/15 07:46:48;;;;;;;29.15;18.30;;;9.20;86.20;;;;;;4935996;29;20052;-79
2021/12/15 07:49:15;;;;;;;23.60;17.38;;;9.10;86.20;;;;;;4935835;29;20520;-80
2021/12/15 07:51:44;;;;;;;22.58;17.33;;;9.20;86.20;;;;;;4935338;29;20051;-80
2021/12/15 07:54:13;;;;;;;25.95;17.92;;;9.10;86.10;;;;;;4934776;29;20054;-81
2021/12/15 07:56:42;;;;;;;28.63;16.90;;;9.10;86.10;;;;;;4934981;29;20056;-80
2021/12/15 07:59:09;;;;;;;26.67;17.33;;;9.20;86.10;;;;;;4936187;29;20048;-80
2021/12/15 08:01:37;;;;;;;23.83;18.10;;;9.20;86.10;;;;;;4935722;29;20086;-80
2021/12/15 08:04:04;;;;;;;22.98;17.13;;;9.20;86.00;;;;;;4935654;29;20540;-80
2021/12/15 08:06:32;;;;;;;21.35;16.77;;;9.20;86.00;;;;;;4933923;29;20430;-80
2021/12/15 08:09:05;;;;;;;22.08;17.60;;;9.20;86.00;;;;;;4919742;29;20047;-80
2021/12/15 08:11:34;;;;;;;24.75;17.70;;;9.20;86.00;;;;;;4931548;29;20051;-80
2021/12/15 08:14:01;;;;;;;24.08;17.65;;;9.20;86.00;;;;;;4935067;29;20083;-80
2021/12/15 08:16:28;;;;;;;23.42;17.75;;;9.20;86.00;;;;;;4935456;29;20052;-81
2021/12/15 08:18:56;;;;;;;21.52;16.75;;;9.20;85.90;;;;;;4935297;29;20458;-81
2021/12/15 08:21:28;;;;;;;23.88;18.13;;;9.20;85.90;;;;;;4934902;29;20573;-81
2021/12/15 08:23:57;;;;;;;23.83;17.40;;;9.20;85.90;;;;;;4935918;29;20524;-80
2021/12/15 08:26:24;;;;;;;24.58;17.80;;;9.20;85.90;;;;;;4935151;29;20058;-80
2021/12/15 08:28:52;;;;;;;23.42;16.90;;;9.20;85.90;;;;;;4935867;29;20047;-80
2021/12/15 08:31:19;;;;;;;23.23;18.17;;;9.20;85.90;;;;;;4934948;29;20043;-80
2021/12/15 08:33:47;;;;;;;24.00;17.83;;;9.20;85.80;;;;;;4935920;29;20113;-81
2021/12/15 08:36:16;;;;;;;20.63;16.75;;;9.20;85.80;;;;;;4935739;29;20414;-80
2021/12/15 08:38:46;;;;;;;22.05;17.38;;;9.30;85.80;;;;;;4935272;29;20059;-80
2021/12/15 08:41:18;;;;;;;23.95;17.20;;;9.30;85.80;;;;;;4932830;29;20052;-80
2021/12/15 08:43:46;;;;;;;23.02;16.40;;;9.20;85.80;;;;;;4935673;29;20058;-80
2021/12/15 08:46:24;;;;;;;22.73;17.00;;;9.20;85.80;;;;;;4935673;29;20050;-80
2021/12/15 08:48:53;;;;;;;24.52;16.65;;;9.20;85.80;;;;;;4935281;29;20063;-80
2021/12/15 08:51:25;;;;;;;22.00;16.40;;;9.20;85.80;;;;;;4935691;29;20048;-80
2021/12/15 08:53:59;;;;;;;21.73;15.20;;;9.20;85.80;;;;;;4935500;29;20526;-80
2021/12/15 08:56:27;;;;;;;;;;;9.30;85.80;;;;;;4935018;29;20143;-79
2021/12/15 08:58:55;;;;;;;22.30;15.80;;;9.20;85.80;;;;;;4935612;29;19923;-80
2021/12/15 09:01:23;;;;;;;24.08;16.35;;;9.20;85.80;;;;;;4935251;29;20047;-80
2021/12/15 09:03:50;;;;;;;23.00;16.23;;;9.20;85.80;;;;;;4935131;29;20048;-80
2021/12/15 09:06:19;;;;;;;22.38;15.60;;;9.30;85.80;;;;;;4935589;29;20051;-80
2021/12/15 09:08:47;;;;;;;20.63;15.88;;;9.30;85.80;;;;;;4935351;29;20052;-80
2021/12/15 09:11:18;;;;;;;22.88;15.13;;;9.30;85.80;;;;;;4931583;29;20067;-81
2021/12/15 09:13:50;;;;;;;20.52;14.32;;;9.30;85.80;;;;;;4935358;29;20407;-80
2021/12/15 09:16:18;;;;;;;19.70;14.77;;;9.30;85.80;;;;;;4935369;29;20048;-80
2021/12/15 09:18:48;;;;;;;21.85;15.07;;;9.30;85.80;;;;;;4934944;29;20087;-80
2021/12/15 09:21:18;;;;;;;20.50;15.23;;;9.30;85.80;;;;;;4935338;29;20050;-80
2021/12/15 09:23:45;;;;;;;21.27;15.45;;;9.30;85.80;;;;;;4934999;29;20060;-80
2021/12/15 09:26:12;;;;;;;21.25;15.52;;;9.30;85.80;;;;;;4934659;28;20059;-80
2021/12/15 09:28:39;;;;;;;19.80;15.02;;;9.30;85.80;;;;;;4935297;29;20047;-80
2021/12/15 09:31:08;;;;;;;20.15;15.75;;;9.40;85.80;;;;;;4935146;29;20044;-80
2021/12/15 09:33:38;;;;;;;19.95;14.82;;;9.30;85.80;;;;;;4935148;29;20050;-80
2021/12/15 09:36:05;;;;;;;20.00;14.55;;;9.40;85.80;;;;;;4920539;29;20047;-80
2021/12/15 09:38:33;;;;;;;20.15;14.15;;;9.40;85.80;;;;;;4934591;29;20051;-80
2021/12/15 09:41:07;;;;;;;20.17;15.43;;;9.40;85.80;;;;;;4935318;29;20056;-80
2021/12/15 09:43:36;;;;;;;18.08;14.13;;;9.40;85.80;;;;;;4938438;29;20070;-80
2021/12/15 09:46:14;;;;;;;21.45;15.43;;;9.40;85.80;;;;;;4938756;29;20086;-80
2021/12/15 09:57:23;;;;;;;21.10;14.13;;;9.40;85.80;;;;;;4938325;29;20039;-80
2021/12/15 10:11:15;;;;;;;23.17;13.90;;;9.40;85.80;;;;;;4938146;29;20051;-80
2021/12/15 10:19:38;;;;;;;17.48;13.25;;;9.50;85.80;;;;;;4937695;29;20425;-80
2021/12/15 10:22:12;;;;;;;17.17;13.98;;;9.40;85.80;;;;;;4938017;29;20437;-80
2021/12/15 10:24:52;;;;;;;21.02;14.50;;;9.50;85.80;;;;;;4937811;29;20052;-81
2021/12/15 10:27:38;;;;;;;20.15;14.23;;;9.50;85.80;;;;;;4937910;29;20047;-80
2021/12/15 10:30:31;;;;;;;17.95;14.15;;;9.50;85.80;;;;;;4922677;29;20065;-80
2021/12/15 10:33:01;;;;;;;19.15;14.10;;;9.50;85.80;;;;;;4937208;29;20052;-80
2021/12/15 10:35:32;;;;;;;19.80;13.77;;;9.50;85.80;;;;;;4937079;29;20214;-80
2021/12/15 10:38:19;;;;;;;28.13;15.05;;;9.50;85.80;;;;;;4938913;29;20052;-80
2021/12/15 10:40:59;;;;;;;17.60;13.52;;;9.50;85.80;;;;;;4937494;29;20055;-80
2021/12/15 10:43:36;;;;;;;21.60;13.73;;;9.50;85.80;;;;;;4937537;29;20048;-80
2021/12/15 10:46:08;;;;;;;16.50;12.80;;;9.50;85.70;;;;;;4937243;29;20039;-80
2021/12/15 10:48:51;;;;;;;17.48;12.90;;;9.60;85.70;;;;;;4937425;29;20585;-80
2021/12/15 10:51:32;;;;;;;16.65;12.45;;;9.60;85.70;;;;;;4924384;29;20047;-80
2021/12/15 10:54:09;;;;;;;17.15;12.65;;;9.60;85.70;;;;;;4936514;29;20431;-80
2021/12/15 10:56:40;;;;;;;16.90;12.65;;;9.60;85.70;;;;;;4932943;29;20052;-80
2021/12/15 10:59:13;;;;;;;19.52;13.07;;;9.60;85.60;;;;;;4937303;29;20510;-80
2021/12/15 11:02:22;;;;;;;16.80;12.32;;;9.60;85.60;;;;;;4937200;29;20119;-80
2021/12/15 11:05:11;;;;;;;18.75;13.13;;;9.60;85.60;;;;;;4937082;29;20055;-80
2021/12/15 11:07:53;;;;;;;18.30;13.20;;;9.60;85.60;;;;;;4937033;29;20517;-80
2021/12/15 11:10:28;;;;;;;20.00;12.90;;;9.60;85.60;;;;;;4937046;29;20503;-80
2021/12/15 11:13:02;;;;;;;20.30;13.23;;;9.60;85.50;;;;;;4937000;29;20054;-80
2021/12/15 11:15:52;;;;;;;19.73;13.00;;;9.60;85.50;;;;;;4936770;29;20050;-80
2021/12/15 11:18:25;;;;;;;18.15;12.10;;;9.70;85.50;;;;;;4923836;29;20514;-80
2021/12/15 11:20:58;;;;;;;18.60;12.77;;;9.70;85.50;;;;;;4936845;29;20544;-80
2021/12/15 11:23:28;;;;;;;15.82;12.35;;;9.70;85.50;;;;;;4936113;29;20400;-80
2021/12/15 11:25:59;;;;;;;16.73;12.20;;;9.70;85.50;;;;;;4936653;29;20059;-79
2021/12/15 11:28:41;;;;;;;16.92;12.88;;;9.70;85.50;;;;;;4936398;29;20061;-80
2021/12/15 11:31:31;;;;;;;15.63;11.98;;;9.70;85.50;;;;;;4936822;29;20044;-79
2021/12/15 11:34:01;;;;;;;16.95;12.60;;;9.70;85.50;;;;;;4936527;29;20043;-79
2021/12/15 11:36:35;;;;;;;17.05;11.75;;;9.70;85.50;;;;;;4936587;29;20049;-79
2021/12/15 11:39:11;;;;;;;16.20;12.15;;;9.70;85.50;;;;;;4936493;29;20051;-79
2021/12/15 11:41:44;;;;;;;16.02;12.07;;;9.70;85.50;;;;;;4932682;29;20054;-80
2021/12/15 11:44:20;;;;;;;15.40;11.93;;;9.70;85.50;;;;;;4937083;29;20051;-79
2021/12/15 11:46:58;;;;;;;19.13;12.60;;;9.80;85.50;;;;;;4936419;29;20044;-80
2021/12/15 11:49:29;;;;;;;17.23;11.95;;;9.70;85.40;;;;;;4936253;29;20059;-80
2021/12/15 11:52:04;;;;;;;17.85;12.43;;;9.70;85.40;;;;;;4936310;29;20055;-79
2021/12/15 11:54:37;;;;;;;16.58;12.07;;;9.80;85.50;;;;;;4936181;29;20077;-80
2021/12/15 11:57:08;;;;;;;15.40;11.52;;;9.80;85.40;;;;;;4920984;29;20047;-80
2021/12/15 11:59:38;;;;;;;16.77;12.02;;;9.80;85.40;;;;;;4931801;29;20060;-80
2021/12/15 12:02:10;;;;;;;18.05;12.30;;;9.80;85.40;;;;;;4936257;29;20437;-79
2021/12/15 12:04:42;;;;;;;14.38;11.10;;;9.80;85.40;;;;;;4936106;29;20070;-79
2021/12/15 12:07:15;;;;;;;16.98;11.55;;;9.90;85.40;;;;;;4936100;29;20054;-79
2021/12/15 12:09:46;;;;;;;19.50;12.57;;;9.80;85.40;;;;;;4936248;29;20062;-79
2021/12/15 12:12:16;;;;;;;15.88;12.05;;;9.90;85.40;;;;;;4935877;29;20291;-80
2021/12/15 12:14:54;;;;;;;16.50;12.23;;;9.80;85.40;;;;;;4935421;29;20521;-80
2021/12/15 12:17:33;;;;;;;16.00;12.13;;;9.90;85.40;;;;;;4934028;29;20409;-79
2021/12/15 12:20:06;;;;;;;15.93;11.77;;;9.90;85.30;;;;;;4937098;29;20051;-80
2021/12/15 12:22:35;;;;;;;13.90;10.88;;;9.90;85.30;;;;;;4935926;29;20046;-79
2021/12/15 12:25:14;;;;;;;15.57;11.57;;;9.90;85.30;;;;;;4935840;29;20518;-79
2021/12/15 12:27:43;;;;;;;14.80;10.85;;;9.90;85.30;;;;;;4935620;29;20046;-79
2021/12/15 12:30:21;;;;;;;16.30;11.45;;;9.90;85.30;;;;;;4935967;29;20052;-79
2021/12/15 12:32:49;;;;;;;15.00;10.90;;;9.90;85.30;;;;;;4935794;29;20417;-80
2021/12/15 12:35:21;;;;;;;14.38;10.02;;;9.90;85.20;;;;;;4933320;29;20062;-80
2021/12/15 12:37:55;;;;;;;14.20;10.38;;;9.90;85.20;;;;;;4935715;29;20059;-80
2021/12/15 12:40:29;;;;;;;16.83;11.10;;;9.90;85.20;;;;;;4935355;29;20044;-80
2021/12/15 12:42:57;;;;;;;14.27;10.68;;;9.90;85.10;;;;;;4935677;29;20576;-79
2021/12/15 12:45:39;;;;;;;16.80;11.15;;;9.90;85.10;;;;;;4935687;29;20054;-79
2021/12/15 12:57:56;;;;;;;16.15;10.75;;;9.90;85.00;;;;;;4935682;29;20055;-80
2021/12/15 12:59:48;;;;;;;15.05;10.23;;;9.90;84.90;;;;;;4931539;29;20425;-81
2021/12/15 13:02:26;;;;;;;14.93;9.98;;;9.90;84.90;;;;;;4932951;29;20068;-81
2021/12/15 13:04:56;;;;;;;13.32;9.90;;;9.90;84.90;;;;;;4935568;29;20055;-80
2021/12/15 13:07:58;;;;;;;14.68;9.65;;;9.90;84.90;;;;;;4935455;29;20051;-80
2021/12/15 13:10:55;;;;;;;18.65;10.40;;;9.90;84.90;;;;;;4951993;28;20061;-80
2021/12/15 13:13:27;;;;;;;16.77;10.23;;;9.90;84.90;;;;;;4952368;28;20047;-80
2021/12/15 13:15:59;;;;;;;13.20;9.52;;;9.90;84.90;;;;;;4952462;28;20061;-80
2021/12/15 13:18:40;;;;;;;14.70;9.77;;;9.90;84.90;;;;;;4955840;28;20138;-80
2021/12/15 13:21:10;;;;;;;13.85;10.10;;;9.90;84.80;;;;;;4956135;28;20047;-80
2021/12/15 13:23:50;;;;;;;14.73;9.35;;;9.90;84.80;;;;;;4955532;28;20093;-80
2021/12/15 13:29:48;;;;;;;14.63;9.77;;;9.90;84.80;;;;;;4955085;29;20538;-80
2021/12/15 13:32:15;;;;;;;12.13;9.35;;;9.90;84.80;;;;;;4953146;29;20065;-80
2021/12/15 13:34:48;;;;;;;13.10;9.43;;;9.90;84.80;;;;;;4955806;28;20051;-82
2021/12/15 13:37:52;;;;;;;17.27;9.45;;;9.90;84.80;;;;;;4955717;28;20047;-81
2021/12/15 13:40:56;;;;;;;13.30;10.07;;;9.90;84.70;;;;;;4952769;28;20509;-81
2021/12/15 13:43:41;;;;;;;14.63;10.25;;;9.90;84.80;;;;;;4955621;28;20058;-81
2021/12/15 13:46:27;;;;;;;15.68;9.43;;;9.90;84.80;;;;;;4944464;28;20047;-81
2021/12/15 13:49:09;;;;;;;14.20;9.45;;;9.90;84.70;;;;;;4938529;29;20498;-80
2021/12/15 13:52:16;;;;;;;12.82;9.35;;;9.90;84.70;;;;;;4938545;29;20414;-80
2021/12/15 13:54:48;;;;;;;12.45;9.13;;;9.90;84.80;;;;;;4928027;29;20059;-80
2021/12/15 13:57:24;;;;;;;11.82;8.80;;;9.90;84.70;;;;;;4938428;29;20039;-80
2021/12/15 13:59:56;;;;;;;14.00;8.70;;;9.80;84.70;;;;;;4938306;29;20506;-80
2021/12/15 14:02:36;;;;;;;14.18;9.82;;;9.90;84.70;;;;;;4937626;29;20054;-80
2021/12/15 14:05:15;;;;;;;13.70;9.38;;;9.90;84.70;;;;;;4937926;29;20056;-80
2021/12/15 14:07:50;;;;;;;15.57;8.77;;;9.90;84.70;;;;;;4938005;29;20055;-79
2021/12/15 14:10:21;;;;;;;13.98;9.38;;;9.90;84.70;;;;;;4938145;29;20047;-80
2021/12/15 14:12:50;;;;;;;13.52;9.40;;;9.90;84.70;;;;;;4938147;29;20084;-80
2021/12/15 14:15:36;;;;;;;11.80;8.50;;;9.90;84.70;;;;;;4938162;29;20122;-80
2021/12/15 14:18:11;;;;;;;15.38;9.18;;;9.90;84.70;;;;;;4922896;29;20047;-80
2021/12/15 14:20:47;;;;;;;13.63;8.98;;;9.90;84.60;;;;;;4933993;29;20047;-80
2021/12/15 14:23:18;;;;;;;13.95;9.65;;;9.90;84.70;;;;;;4936859;28;20047;-80
2021/12/15 14:25:46;;;;;;;13.13;8.95;;;9.80;84.60;;;;;;4937890;29;20054;-80